createdAt,value
2022-12-19T00:01:34.693Z,1.23
2022-12-19T00:04:08.132Z,1.24
2022-12-19T00:06:36.258Z,1.06
2022-12-19T00:09:02.684Z,1.30
2022-12-19T00:11:29.908Z,1.38
2022-12-19T00:13:56.923Z,1.37
2022-12-19T00:16:28.406Z,1.29
2022-12-19T00:18:57.224Z,1.37
2022-12-19T00:21:26.241Z,1.27
2022-12-19T00:23:53.026Z,1.31
2022-12-19T00:26:22.384Z,1.43
2022-12-19T00:28:53.535Z,1.46
2022-12-19T00:31:21.467Z,1.43
2022-12-19T00:33:48.776Z,1.43
2022-12-19T00:36:21.800Z,1.49
2022-12-19T00:38:51.021Z,1.53
2022-12-19T00:41:22.746Z,1.48
2022-12-19T00:43:56.365Z,1.34
2022-12-19T00:46:23.129Z,1.40
2022-12-19T00:48:49.562Z,1.49
2022-12-19T00:51:19.125Z,1.42
2022-12-19T00:53:46.651Z,1.57
2022-12-19T00:56:17.256Z,1.52
2022-12-19T00:58:47.111Z,1.49
2022-12-19T01:01:21.046Z,1.50
2022-12-19T01:04:11.318Z,1.38
2022-12-19T01:06:34.595Z,1.67
2022-12-19T01:09:01.397Z,1.66
2022-12-19T01:11:46.201Z,1.73
2022-12-19T01:14:19.035Z,1.75
2022-12-19T01:16:47.415Z,1.80
2022-12-19T01:19:13.964Z,1.75
2022-12-19T01:21:40.382Z,1.72
2022-12-19T01:24:07.052Z,1.78
2022-12-19T01:26:33.511Z,1.83
2022-12-19T01:28:59.895Z,1.87
2022-12-19T01:31:26.365Z,1.82
2022-12-19T01:33:52.786Z,1.89
2022-12-19T01:36:20.965Z,1.90
2022-12-19T01:38:47.315Z,1.85
2022-12-19T01:41:13.742Z,1.77
2022-12-19T01:43:59.082Z,1.90
2022-12-19T01:46:48.847Z,1.77
2022-12-19T01:49:25.395Z,1.95
2022-12-19T01:51:52.822Z,1.98
2022-12-19T01:54:23.019Z,2.03
2022-12-19T01:56:52.012Z,2.00
2022-12-19T01:59:26.795Z,2.02
2022-12-19T02:01:58.603Z,2.05
2022-12-19T02:04:28.937Z,2.08
2022-12-19T02:06:59.754Z,2.12
2022-12-19T02:09:36.133Z,2.15
2022-12-19T02:12:02.741Z,2.17
2022-12-19T02:14:29.326Z,2.24
2022-12-19T02:17:00.398Z,2.29
2022-12-19T02:20:05.932Z,2.28
2022-12-19T02:22:43.987Z,2.43
2022-12-19T02:25:36.391Z,2.42
2022-12-19T02:28:11.865Z,2.50
2022-12-19T02:31:14.272Z,2.53
2022-12-19T02:33:56.302Z,2.59
2022-12-19T02:36:30.204Z,2.42
2022-12-19T02:39:08.876Z,2.64
2022-12-19T02:41:51.475Z,2.64
2022-12-19T02:44:20.461Z,2.59
2022-12-19T02:46:46.845Z,2.60
2022-12-19T02:49:21.392Z,2.68
2022-12-19T02:51:56.945Z,2.73
2022-12-19T02:54:23.398Z,2.79
2022-12-19T02:56:58.928Z,2.79
2022-12-19T02:59:33.171Z,2.94
2022-12-19T03:02:41.277Z,2.92
2022-12-19T03:05:28.292Z,2.93
2022-12-19T03:08:13.547Z,2.97
2022-12-19T03:10:51.015Z,3.05
2022-12-19T03:13:27.588Z,3.09
2022-12-19T03:15:54.048Z,3.13
2022-12-19T03:18:20.629Z,3.19
2022-12-19T03:21:02.542Z,3.17
2022-12-19T03:23:29.488Z,3.28
2022-12-19T03:25:59.579Z,3.32
2022-12-19T03:28:40.428Z,3.32
2022-12-19T03:31:07.963Z,3.40
2022-12-19T03:33:35.349Z,3.41
2022-12-19T03:36:05.102Z,3.43
2022-12-19T03:38:32.069Z,3.50
2022-12-19T03:40:59.827Z,3.49
2022-12-19T03:43:27.097Z,3.54
2022-12-19T03:45:58.193Z,3.55
2022-12-19T03:48:40.738Z,3.59
2022-12-19T03:51:19.225Z,3.60
2022-12-19T03:53:48.071Z,3.69
2022-12-19T03:56:21.594Z,3.62
2022-12-19T03:58:52.667Z,3.63
2022-12-19T04:01:19.370Z,3.67
2022-12-19T04:03:46.054Z,3.72
2022-12-19T04:06:13.374Z,3.78
2022-12-19T04:08:40.123Z,3.81
2022-12-19T04:11:15.594Z,3.78
2022-12-19T04:13:46.580Z,3.90
2022-12-19T04:16:18.860Z,3.90
2022-12-19T04:18:49.657Z,3.90
2022-12-19T04:21:23.891Z,3.94
2022-12-19T04:23:54.095Z,3.92
2022-12-19T04:26:20.430Z,3.79
2022-12-19T04:28:56.698Z,3.86
2022-12-19T04:31:23.569Z,3.96
2022-12-19T04:33:50.061Z,3.99
2022-12-19T04:36:16.572Z,4.05
2022-12-19T04:38:43.049Z,4.06
2022-12-19T04:41:09.596Z,4.06
2022-12-19T04:43:35.960Z,4.19
2022-12-19T04:46:02.407Z,4.20
2022-12-19T04:48:28.857Z,4.23
2022-12-19T04:50:56.059Z,4.28
2022-12-19T04:53:22.521Z,4.33
2022-12-19T04:55:48.968Z,4.35
2022-12-19T04:58:19.035Z,4.35
2022-12-19T05:00:47.957Z,4.42
2022-12-19T05:03:14.435Z,4.45
2022-12-19T05:05:40.956Z,4.51
2022-12-19T05:08:07.843Z,4.55
2022-12-19T05:10:34.212Z,4.58
2022-12-19T05:13:00.591Z,4.60
2022-12-19T05:15:27.070Z,4.56
2022-12-19T05:17:53.463Z,4.67
2022-12-19T05:20:19.902Z,4.61
2022-12-19T05:22:46.609Z,4.68
2022-12-19T05:25:13.002Z,4.66
2022-12-19T05:27:39.368Z,4.77
2022-12-19T05:30:06.467Z,4.75
2022-12-19T05:32:33.722Z,4.73
2022-12-19T05:35:00.150Z,4.89
2022-12-19T05:37:26.564Z,4.88
2022-12-19T05:39:52.925Z,4.79
2022-12-19T05:42:19.352Z,4.98
2022-12-19T05:44:45.726Z,5.00
2022-12-19T05:47:12.078Z,5.00
2022-12-19T05:49:41.435Z,5.02
2022-12-19T05:52:11.525Z,5.07
2022-12-19T05:54:38.048Z,5.12
2022-12-19T05:57:04.459Z,5.13
2022-12-19T05:59:30.879Z,5.25
2022-12-19T06:01:57.302Z,5.28
2022-12-19T06:04:24.443Z,5.27
2022-12-19T06:06:50.844Z,5.35
2022-12-19T06:09:17.644Z,5.43
2022-12-19T06:11:44.030Z,5.46
2022-12-19T06:14:10.379Z,5.50
2022-12-19T06:16:36.866Z,5.54
2022-12-19T06:19:03.298Z,5.62
2022-12-19T06:21:29.764Z,5.61
2022-12-19T06:23:56.434Z,5.61
2022-12-19T06:26:22.948Z,5.74
2022-12-19T06:28:51.530Z,5.74
2022-12-19T06:31:19.458Z,5.77
2022-12-19T06:33:46.185Z,5.81
2022-12-19T06:36:26.177Z,5.85
2022-12-19T06:38:53.510Z,5.89
2022-12-19T06:41:39.057Z,5.87
2022-12-19T06:44:07.283Z,5.93
2022-12-19T06:46:34.813Z,5.99
2022-12-19T06:49:02.522Z,6.08
2022-12-19T06:51:29.473Z,6.18
2022-12-19T06:53:56.309Z,6.18
2022-12-19T06:56:23.459Z,6.21
2022-12-19T06:58:50.543Z,6.23
2022-12-19T07:01:27.737Z,6.30
2022-12-19T07:03:54.594Z,6.34
2022-12-19T07:06:20.971Z,6.45
2022-12-19T07:08:47.434Z,6.42
2022-12-19T07:11:13.796Z,6.52
2022-12-19T07:13:40.265Z,6.53
2022-12-19T07:16:07.122Z,6.59
2022-12-19T07:18:36.279Z,6.69
2022-12-19T07:21:03.167Z,6.67
2022-12-19T07:23:29.870Z,6.77
2022-12-19T07:25:56.398Z,6.75
2022-12-19T07:28:22.898Z,6.80
2022-12-19T07:30:49.418Z,6.83
2022-12-19T07:33:21.260Z,6.85
2022-12-19T07:35:48.220Z,6.82
2022-12-19T07:38:14.682Z,6.84
2022-12-19T07:40:41.124Z,6.85
2022-12-19T07:43:07.558Z,6.98
2022-12-19T07:45:36.840Z,6.81
2022-12-19T07:48:04.734Z,6.77
2022-12-19T07:50:31.690Z,6.87
2022-12-19T07:52:58.514Z,6.90
2022-12-19T07:55:25.708Z,6.83
2022-12-19T07:57:53.419Z,6.78
2022-12-19T08:00:19.896Z,6.83
2022-12-19T08:02:46.806Z,6.90
2022-12-19T08:05:13.501Z,6.90
2022-12-19T08:07:40.748Z,6.97
2022-12-19T08:10:12.497Z,7.00
2022-12-19T08:12:39.014Z,6.98
2022-12-19T08:15:06.117Z,6.87
2022-12-19T08:17:34.446Z,7.05
2022-12-19T08:20:00.969Z,7.09
2022-12-19T08:22:31.498Z,7.07
2022-12-19T08:24:58.002Z,7.15
2022-12-19T08:27:24.699Z,7.10
2022-12-19T08:29:51.115Z,7.09
2022-12-19T08:32:21.197Z,7.15
2022-12-19T08:34:48.813Z,7.10
2022-12-19T08:37:15.256Z,7.15
2022-12-19T08:39:43.748Z,7.19
2022-12-19T08:42:10.115Z,7.21
2022-12-19T08:44:36.473Z,7.20
2022-12-19T08:47:02.976Z,7.30
2022-12-19T08:49:29.511Z,7.27
2022-12-19T08:51:56.064Z,7.20
2022-12-19T08:54:22.530Z,7.27
2022-12-19T08:56:48.975Z,7.19
2022-12-19T08:59:19.091Z,7.27
2022-12-19T09:01:57.353Z,7.20
2022-12-19T09:05:57.404Z,7.34
2022-12-19T09:07:10.495Z,7.33
2022-12-19T09:09:36.863Z,7.33
2022-12-19T09:12:03.377Z,7.35
2022-12-19T09:14:33.601Z,7.37
2022-12-19T09:17:00.426Z,7.43
2022-12-19T09:19:29.455Z,7.43
2022-12-19T09:21:56.208Z,7.46
2022-12-19T09:24:22.711Z,7.39
2022-12-19T09:26:49.141Z,7.40
2022-12-19T09:29:20.470Z,7.51
2022-12-19T09:31:50.035Z,7.50
2022-12-19T09:34:22.637Z,7.43
2022-12-19T09:36:50.574Z,7.48
2022-12-19T09:39:17.309Z,7.49
2022-12-19T09:42:05.570Z,7.56
2022-12-19T09:44:38.314Z,7.43
2022-12-19T09:47:10.324Z,7.47
2022-12-19T09:49:41.730Z,7.56
2022-12-19T09:52:35.317Z,7.42
2022-12-19T09:55:20.566Z,7.41
2022-12-19T09:57:55.795Z,7.55
2022-12-19T10:00:22.865Z,7.56
2022-12-19T10:02:58.559Z,7.62
2022-12-19T10:07:09.202Z,7.50
2022-12-19T10:09:00.265Z,7.59
2022-12-19T10:12:42.984Z,7.59
2022-12-19T10:15:14.097Z,7.71
2022-12-19T10:18:24.509Z,7.73
2022-12-19T10:21:18.222Z,7.75
2022-12-19T10:24:12.004Z,7.86
2022-12-19T10:26:43.700Z,7.81
2022-12-19T10:29:16.210Z,7.79
2022-12-19T10:31:56.980Z,7.89
2022-12-19T10:34:25.525Z,7.98
2022-12-19T10:37:27.674Z,7.93
2022-12-19T10:40:02.475Z,8.02
2022-12-19T10:42:41.428Z,8.03
2022-12-19T10:45:17.863Z,7.99
2022-12-19T10:47:44.496Z,8.02
2022-12-19T10:50:13.123Z,8.06
2022-12-19T10:52:47.147Z,8.03
2022-12-19T10:55:30.425Z,8.00
2022-12-19T10:58:02.330Z,7.95
2022-12-19T11:00:32.871Z,8.04
2022-12-19T11:03:18.896Z,8.01
2022-12-19T11:05:57.120Z,8.05
2022-12-19T11:08:27.464Z,8.08
2022-12-19T11:13:19.422Z,7.98
2022-12-19T11:16:56.623Z,8.04
2022-12-19T11:21:22.016Z,8.06
2022-12-19T11:28:06.017Z,8.14
2022-12-19T11:29:34.915Z,8.16
2022-12-19T11:30:44.128Z,8.17
2022-12-19T11:30:46.938Z,8.19
2022-12-19T11:33:24.719Z,8.24
2022-12-19T11:35:56.592Z,8.24
2022-12-19T11:38:36.924Z,8.15
2022-12-19T11:41:13.846Z,8.17
2022-12-19T11:43:48.289Z,8.25
2022-12-19T11:46:23.750Z,8.28
2022-12-19T11:48:52.483Z,8.30
2022-12-19T11:51:22.012Z,8.29
2022-12-19T11:54:15.378Z,8.34
2022-12-19T11:56:41.879Z,8.32
2022-12-19T11:59:12.870Z,8.34
2022-12-19T12:01:44.266Z,8.32
2022-12-19T12:04:41.975Z,8.32
2022-12-19T12:07:30.852Z,8.33
2022-12-19T12:16:34.971Z,8.35
2022-12-19T12:23:09.462Z,8.34
2022-12-19T12:31:01.055Z,8.39
2022-12-19T12:31:13.018Z,8.42
2022-12-19T12:31:42.136Z,8.50
2022-12-19T12:32:02.747Z,8.50
2022-12-19T12:32:06.512Z,8.33
2022-12-19T12:35:56.641Z,8.52
2022-12-19T12:40:42.640Z,8.72
2022-12-19T12:43:35.319Z,8.67
2022-12-19T12:46:04.418Z,8.71
2022-12-19T12:48:47.846Z,8.72
2022-12-19T12:51:14.675Z,8.73
2022-12-19T12:53:44.375Z,8.80
2022-12-19T12:56:12.817Z,8.84
2022-12-19T12:58:54.661Z,8.79
2022-12-19T13:01:30.222Z,8.86
2022-12-19T13:04:12.170Z,8.90
2022-12-19T13:06:49.336Z,8.92
2022-12-19T13:09:26.945Z,8.89
2022-12-19T13:12:34.013Z,8.80
2022-12-19T13:15:18.741Z,8.81
2022-12-19T13:17:48.077Z,8.92
2022-12-19T13:20:18.439Z,8.98
2022-12-19T13:22:46.326Z,8.92
2022-12-19T13:25:34.518Z,8.95
2022-12-19T13:28:04.090Z,9.02
2022-12-19T13:30:32.270Z,9.04
2022-12-19T13:33:13.026Z,9.09
2022-12-19T13:37:02.199Z,9.14
2022-12-19T13:39:56.400Z,9.09
2022-12-19T13:41:49.001Z,8.95
2022-12-19T13:44:20.145Z,9.00
2022-12-19T13:46:46.852Z,9.03
2022-12-19T13:49:25.317Z,8.93
2022-12-19T13:51:59.170Z,9.02
2022-12-19T13:54:32.886Z,9.07
2022-12-19T13:57:02.612Z,9.17
2022-12-19T13:59:37.987Z,9.16
2022-12-19T14:02:16.585Z,9.14
2022-12-19T14:04:44.557Z,9.05
2022-12-19T14:07:34.775Z,9.06
2022-12-19T14:11:34.950Z,9.15
2022-12-19T14:14:01.509Z,9.16
2022-12-19T14:15:58.038Z,9.20
2022-12-19T14:18:44.993Z,9.16
2022-12-19T14:22:07.403Z,9.10
2022-12-19T14:24:17.054Z,9.13
2022-12-19T14:28:18.524Z,9.10
2022-12-19T14:30:28.244Z,9.17
2022-12-19T14:33:43.871Z,9.12
2022-12-19T14:36:07.173Z,9.23
2022-12-19T14:39:25.484Z,9.21
2022-12-19T14:41:08.235Z,9.26
2022-12-19T14:43:59.667Z,9.32
2022-12-19T14:53:34.253Z,9.31
2022-12-19T14:54:01.705Z,9.28
2022-12-19T14:54:33.733Z,9.29
2022-12-19T14:56:08.523Z,9.35
2022-12-19T14:58:53.399Z,9.13
2022-12-19T15:01:09.287Z,9.25
2022-12-19T15:03:52.313Z,9.25
2022-12-19T15:07:07.037Z,9.13
2022-12-19T15:11:07.821Z,9.26
2022-12-19T15:14:54.058Z,9.21
2022-12-19T15:15:23.972Z,9.03
2022-12-19T15:17:53.981Z,9.11
2022-12-19T15:20:20.812Z,9.06
2022-12-19T15:22:47.693Z,9.08
2022-12-19T15:25:53.124Z,9.09
2022-12-19T15:28:05.580Z,8.97
2022-12-19T15:30:33.735Z,8.84
2022-12-19T15:33:00.121Z,8.86
2022-12-19T15:35:26.492Z,8.90
2022-12-19T15:37:52.858Z,8.82
2022-12-19T15:40:19.292Z,8.79
2022-12-19T15:42:48.114Z,8.92
2022-12-19T15:45:16.262Z,8.83
2022-12-19T15:47:43.281Z,8.88
2022-12-19T15:50:22.171Z,8.84
2022-12-19T15:52:48.740Z,8.89
2022-12-19T15:55:17.145Z,8.84
2022-12-19T15:57:49.581Z,8.81
2022-12-19T16:00:16.182Z,8.84
2022-12-19T16:03:21.203Z,8.83
2022-12-19T16:05:29.539Z,8.87
2022-12-19T16:07:56.888Z,8.80
2022-12-19T16:10:23.321Z,8.84
2022-12-19T16:12:52.443Z,8.92
2022-12-19T16:15:30.919Z,8.83
2022-12-19T16:17:58.899Z,8.86
2022-12-19T16:20:30.638Z,8.81
2022-12-19T16:22:57.317Z,8.79
2022-12-19T16:25:39.718Z,8.86
2022-12-19T16:28:08.182Z,8.83
2022-12-19T16:30:35.684Z,8.91
2022-12-19T16:33:02.228Z,8.94
2022-12-19T16:36:02.323Z,8.94
2022-12-19T16:38:17.257Z,8.96
2022-12-19T16:40:44.412Z,9.10
2022-12-19T16:43:15.564Z,9.03
2022-12-19T16:45:42.482Z,9.04
2022-12-19T16:48:19.821Z,9.10
2022-12-19T16:50:46.447Z,9.18
2022-12-19T16:53:13.098Z,9.17
2022-12-19T16:55:39.825Z,9.17
2022-12-19T16:58:06.318Z,9.19
2022-12-19T17:00:36.396Z,9.20
2022-12-19T17:03:07.562Z,9.17
2022-12-19T17:05:34.086Z,9.20
2022-12-19T17:08:01.657Z,9.23
2022-12-19T17:10:30.488Z,9.27
2022-12-19T17:12:58.248Z,9.26
2022-12-19T17:15:28.706Z,9.31
2022-12-19T17:17:58.119Z,9.26
2022-12-19T17:20:27.812Z,9.32
2022-12-19T17:22:54.177Z,9.31
2022-12-19T17:25:25.786Z,9.34
2022-12-19T17:27:53.384Z,9.38
2022-12-19T17:30:20.237Z,9.38
2022-12-19T17:32:48.663Z,9.43
2022-12-19T17:35:25.867Z,9.37
2022-12-19T17:37:55.733Z,9.39
2022-12-19T17:40:27.258Z,9.36
2022-12-19T17:42:54.573Z,9.20
2022-12-19T17:45:22.241Z,9.28
2022-12-19T17:47:49.372Z,9.30
2022-12-19T17:50:23.946Z,9.22
2022-12-19T17:52:51.260Z,9.21
2022-12-19T17:55:28.721Z,9.12
2022-12-19T17:57:55.603Z,9.25
2022-12-19T18:00:30.079Z,9.12
2022-12-19T18:02:58.172Z,9.15
2022-12-19T18:05:36.380Z,9.15
2022-12-19T18:08:03.882Z,9.23
2022-12-19T18:10:31.504Z,9.16
2022-12-19T18:12:58.218Z,9.15
2022-12-19T18:15:25.406Z,9.16
2022-12-19T18:17:52.715Z,9.20
2022-12-19T18:20:31.562Z,9.18
2022-12-19T18:22:59.809Z,9.00
2022-12-19T18:25:28.741Z,9.01
2022-12-19T18:27:55.272Z,9.13
2022-12-19T18:30:23.610Z,9.12
2022-12-19T18:32:57.132Z,9.12
2022-12-19T18:35:31.433Z,9.13
2022-12-19T18:38:00.390Z,9.09
2022-12-19T18:40:31.325Z,9.11
2022-12-19T18:42:58.816Z,9.08
2022-12-19T18:45:29.780Z,9.10
2022-12-19T18:47:59.224Z,9.14
2022-12-19T18:50:26.714Z,9.16
2022-12-19T18:52:54.424Z,9.16
2022-12-19T18:55:27.497Z,9.09
2022-12-19T18:57:53.999Z,9.13
2022-12-19T19:00:22.997Z,9.21
2022-12-19T19:02:54.601Z,9.16
2022-12-19T19:05:24.037Z,9.20
2022-12-19T19:07:50.517Z,9.21
2022-12-19T19:10:26.820Z,9.25
2022-12-19T19:12:54.179Z,9.35
2022-12-19T19:15:22.696Z,9.39
2022-12-19T19:17:51.581Z,9.34
2022-12-19T19:20:18.181Z,9.36
2022-12-19T19:22:45.108Z,9.37
2022-12-19T19:25:12.059Z,9.33
2022-12-19T19:27:39.851Z,9.33
2022-12-19T19:30:06.910Z,9.38
2022-12-19T19:32:33.869Z,9.42
2022-12-19T19:35:00.678Z,9.51
2022-12-19T19:37:27.660Z,9.51
2022-12-19T19:39:54.120Z,9.52
2022-12-19T19:42:20.566Z,9.43
2022-12-19T19:44:46.947Z,9.43
2022-12-19T19:47:13.505Z,9.40
2022-12-19T19:49:39.933Z,9.46
2022-12-19T19:52:06.421Z,9.43
2022-12-19T19:54:34.711Z,9.47
2022-12-19T19:57:01.107Z,9.38
2022-12-19T19:59:31.220Z,9.47
2022-12-19T20:01:57.818Z,9.39
2022-12-19T20:04:24.411Z,9.50
2022-12-19T20:06:50.893Z,9.54
2022-12-19T20:09:17.265Z,9.46
2022-12-19T20:11:43.687Z,9.51
2022-12-19T20:14:10.101Z,9.60
2022-12-19T20:16:36.667Z,9.61
2022-12-19T20:19:03.149Z,9.57
2022-12-19T20:21:30.629Z,9.59
2022-12-19T20:23:57.512Z,9.56
2022-12-19T20:26:23.987Z,9.58
2022-12-19T20:28:51.268Z,9.54
2022-12-19T20:31:19.243Z,9.48
2022-12-19T20:33:46.327Z,9.53
2022-12-19T20:36:13.450Z,9.54
2022-12-19T20:38:40.466Z,9.55
2022-12-19T20:41:07.553Z,9.48
2022-12-19T20:43:34.089Z,9.49
2022-12-19T20:46:02.373Z,9.45
2022-12-19T20:48:28.835Z,9.39
2022-12-19T20:50:56.714Z,9.41
2022-12-19T20:53:23.150Z,9.37
2022-12-19T20:55:58.426Z,9.31
2022-12-19T20:58:26.094Z,9.40
2022-12-19T21:00:56.466Z,9.30
2022-12-19T21:03:28.895Z,9.33
2022-12-19T21:05:57.777Z,9.30
2022-12-19T21:08:25.440Z,9.28
2022-12-19T21:10:52.076Z,9.28
2022-12-19T21:13:19.331Z,9.34
2022-12-19T21:15:45.891Z,9.24
2022-12-19T21:18:12.389Z,9.32
2022-12-19T21:20:38.926Z,9.36
2022-12-19T21:23:05.444Z,9.35
2022-12-19T21:25:31.950Z,9.29
2022-12-19T21:27:58.372Z,9.36
2022-12-19T21:30:24.979Z,9.30
2022-12-19T21:32:51.382Z,9.43
2022-12-19T21:35:17.807Z,9.43
2022-12-19T21:37:49.881Z,9.33
2022-12-19T21:40:16.764Z,9.46
2022-12-19T21:42:43.261Z,9.43
2022-12-19T21:45:10.687Z,9.57
2022-12-19T21:47:39.533Z,9.50
2022-12-19T21:50:07.757Z,9.55
2022-12-19T21:52:34.120Z,9.57
2022-12-19T21:55:00.532Z,9.62
2022-12-19T21:57:27.006Z,9.63
2022-12-19T21:59:53.514Z,9.68
2022-12-19T22:02:20.390Z,9.63
2022-12-19T22:04:48.458Z,9.63
2022-12-19T22:07:15.297Z,9.64
2022-12-19T22:09:41.702Z,9.59
2022-12-19T22:12:10.485Z,9.64
2022-12-19T22:14:36.970Z,9.42
2022-12-19T22:17:03.711Z,9.49
2022-12-19T22:19:30.080Z,9.49
2022-12-19T22:21:56.477Z,9.44
2022-12-19T22:24:22.921Z,9.40
2022-12-19T22:26:49.354Z,9.48
2022-12-19T22:29:16.732Z,9.44
2022-12-19T22:31:44.701Z,9.51
2022-12-19T22:34:13.774Z,9.50
2022-12-19T22:36:42.453Z,9.47
2022-12-19T22:39:11.083Z,9.52
2022-12-19T22:41:38.307Z,9.44
2022-12-19T22:44:05.070Z,9.52
2022-12-19T22:46:33.889Z,9.45
2022-12-19T22:49:03.672Z,9.45
2022-12-19T22:51:31.184Z,9.51
2022-12-19T22:53:58.230Z,9.51
2022-12-19T22:56:26.776Z,9.59
2022-12-19T22:58:54.969Z,9.63
2022-12-19T23:01:29.420Z,9.57
2022-12-19T23:03:58.019Z,9.64
2022-12-19T23:06:26.716Z,9.55
2022-12-19T23:08:53.480Z,9.54
2022-12-19T23:11:22.721Z,9.58
2022-12-19T23:13:49.625Z,9.52
2022-12-19T23:16:16.533Z,9.56
2022-12-19T23:18:43.121Z,9.46
2022-12-19T23:21:14.306Z,9.60
2022-12-19T23:23:42.566Z,9.57
2022-12-19T23:26:16.104Z,9.56
2022-12-19T23:28:44.253Z,9.52
2022-12-19T23:31:13.368Z,9.51
2022-12-19T23:33:39.774Z,9.48
2022-12-19T23:36:06.504Z,9.46
2022-12-19T23:38:33.257Z,9.40
2022-12-19T23:41:05.883Z,9.44
2022-12-19T23:43:33.721Z,9.36
2022-12-19T23:46:07.735Z,9.36
2022-12-19T23:48:34.287Z,9.47
2022-12-19T23:51:05.815Z,9.46
2022-12-19T23:53:32.770Z,9.46
2022-12-19T23:55:59.418Z,9.44
2022-12-19T23:58:25.902Z,9.36
